sensor_id;sensor_type;location;lat;lon;timestamp;temperature;humidity
78898;DHT22;68287;44.714;37.756;2023-05-23T00:00:25;25.26;51.14
78898;DHT22;68287;44.714;37.756;2023-05-23T00:01:26;25.25;51.15
78898;DHT22;68287;44.714;37.756;2023-05-23T00:02:28;25.26;51.19
78898;DHT22;68287;44.714;37.756;2023-05-23T00:03:30;25.24;51.12
78898;DHT22;68287;44.714;37.756;2023-05-23T00:04:31;25.25;51.16
78898;DHT22;68287;44.714;37.756;2023-05-23T00:05:33;25.25;51.16
78898;DHT22;68287;44.714;37.756;2023-05-23T00:06:34;25.24;51.23
78898;DHT22;68287;44.714;37.756;2023-05-23T00:07:38;25.25;51.16
78898;DHT22;68287;44.714;37.756;2023-05-23T00:08:40;25.26;51.15
78898;DHT22;68287;44.714;37.756;2023-05-23T00:09:41;25.24;51.12
78898;DHT22;68287;44.714;37.756;2023-05-23T00:10:43;25.26;51.15
78898;DHT22;68287;44.714;37.756;2023-05-23T00:11:44;25.24;51.17
78898;DHT22;68287;44.714;37.756;2023-05-23T00:12:46;25.25;51.19
78898;DHT22;68287;44.714;37.756;2023-05-23T00:13:47;25.24;51.17
78898;DHT22;68287;44.714;37.756;2023-05-23T00:14:51;25.26;51.11
78898;DHT22;68287;44.714;37.756;2023-05-23T00:15:53;25.22;51.13
78898;DHT22;68287;44.714;37.756;2023-05-23T00:16:54;25.25;51.11
78898;DHT22;68287;44.714;37.756;2023-05-23T00:17:56;25.25;51.12
78898;DHT22;68287;44.714;37.756;2023-05-23T00:18:57;25.25;51.12
78898;DHT22;68287;44.714;37.756;2023-05-23T00:19:59;25.24;51.15
78898;DHT22;68287;44.714;37.756;2023-05-23T00:21:00;25.25;51.17
78898;DHT22;68287;44.714;37.756;2023-05-23T00:22:02;25.24;51.16
78898;DHT22;68287;44.714;37.756;2023-05-23T00:23:04;25.24;51.16
78898;DHT22;68287;44.714;37.756;2023-05-23T00:24:05;25.24;51.15
78898;DHT22;68287;44.714;37.756;2023-05-23T00:25:10;25.19;51.20
78898;DHT22;68287;44.714;37.756;2023-05-23T00:26:11;25.24;51.17
78898;DHT22;68287;44.714;37.756;2023-05-23T00:27:17;25.22;51.16
78898;DHT22;68287;44.714;37.756;2023-05-23T00:28:18;25.22;51.15
78898;DHT22;68287;44.714;37.756;2023-05-23T00:29:19;25.25;51.09
78898;DHT22;68287;44.714;37.756;2023-05-23T00:30:21;25.26;51.13
78898;DHT22;68287;44.714;37.756;2023-05-23T00:31:22;25.25;51.11
78898;DHT22;68287;44.714;37.756;2023-05-23T00:32:24;25.24;51.13
78898;DHT22;68287;44.714;37.756;2023-05-23T00:33:26;25.24;51.13
78898;DHT22;68287;44.714;37.756;2023-05-23T00:34:27;25.25;51.12
78898;DHT22;68287;44.714;37.756;2023-05-23T00:35:28;25.22;51.15
78898;DHT22;68287;44.714;37.756;2023-05-23T00:36:29;25.22;51.15
78898;DHT22;68287;44.714;37.756;2023-05-23T00:37:31;25.25;51.11
78898;DHT22;68287;44.714;37.756;2023-05-23T00:38:34;25.24;51.11
78898;DHT22;68287;44.714;37.756;2023-05-23T00:39:35;25.25;51.11
78898;DHT22;68287;44.714;37.756;2023-05-23T00:40:36;25.22;51.13
78898;DHT22;68287;44.714;37.756;2023-05-23T00:41:38;25.22;51.12
78898;DHT22;68287;44.714;37.756;2023-05-23T00:42:39;25.24;51.11
78898;DHT22;68287;44.714;37.756;2023-05-23T00:43:40;25.21;51.15
78898;DHT22;68287;44.714;37.756;2023-05-23T00:44:42;25.24;51.08
78898;DHT22;68287;44.714;37.756;2023-05-23T00:45:43;25.25;51.08
78898;DHT22;68287;44.714;37.756;2023-05-23T00:46:46;25.24;51.08
78898;DHT22;68287;44.714;37.756;2023-05-23T00:47:48;25.22;51.13
78898;DHT22;68287;44.714;37.756;2023-05-23T00:48:52;25.24;51.09
78898;DHT22;68287;44.714;37.756;2023-05-23T00:49:54;25.22;51.09
78898;DHT22;68287;44.714;37.756;2023-05-23T00:50:56;25.22;51.08
78898;DHT22;68287;44.714;37.756;2023-05-23T00:51:57;25.24;51.13
78898;DHT22;68287;44.714;37.756;2023-05-23T00:52:59;25.22;51.08
78898;DHT22;68287;44.714;37.756;2023-05-23T00:54:05;25.22;51.08
78898;DHT22;68287;44.714;37.756;2023-05-23T00:55:08;25.24;51.01
78898;DHT22;68287;44.714;37.756;2023-05-23T00:56:10;25.24;51.10
78898;DHT22;68287;44.714;37.756;2023-05-23T00:57:12;25.24;50.97
78898;DHT22;68287;44.714;37.756;2023-05-23T00:58:13;25.24;51.02
78898;DHT22;68287;44.714;37.756;2023-05-23T00:59:16;25.25;51.01
78898;DHT22;68287;44.714;37.756;2023-05-23T01:00:18;25.24;51.05
78898;DHT22;68287;44.714;37.756;2023-05-23T01:01:21;25.25;50.99
78898;DHT22;68287;44.714;37.756;2023-05-23T01:02:22;25.22;51.06
78898;DHT22;68287;44.714;37.756;2023-05-23T01:03:23;25.22;51.02
78898;DHT22;68287;44.714;37.756;2023-05-23T01:04:28;25.24;51.03
78898;DHT22;68287;44.714;37.756;2023-05-23T01:05:30;25.24;51.05
78898;DHT22;68287;44.714;37.756;2023-05-23T01:06:31;25.21;51.03
78898;DHT22;68287;44.714;37.756;2023-05-23T01:07:33;25.21;51.03
78898;DHT22;68287;44.714;37.756;2023-05-23T01:08:34;25.25;50.98
78898;DHT22;68287;44.714;37.756;2023-05-23T01:09:36;25.24;50.99
78898;DHT22;68287;44.714;37.756;2023-05-23T01:10:37;25.24;51.02
78898;DHT22;68287;44.714;37.756;2023-05-23T01:11:44;25.24;51.02
78898;DHT22;68287;44.714;37.756;2023-05-23T01:14:00;25.24;50.97
78898;DHT22;68287;44.714;37.756;2023-05-23T01:15:06;25.22;51.01
78898;DHT22;68287;44.714;37.756;2023-05-23T01:18:12;25.19;51.04
78898;DHT22;68287;44.714;37.756;2023-05-23T01:20:30;25.22;51.01
78898;DHT22;68287;44.714;37.756;2023-05-23T01:21:33;25.18;51.04
78898;DHT22;68287;44.714;37.756;2023-05-23T01:24:53;25.18;51.05
78898;DHT22;68287;44.714;37.756;2023-05-23T01:26:57;25.18;51.11
78898;DHT22;68287;44.714;37.756;2023-05-23T01:28:02;25.15;51.06
78898;DHT22;68287;44.714;37.756;2023-05-23T01:29:16;25.16;51.17
78898;DHT22;68287;44.714;37.756;2023-05-23T01:30:20;25.16;51.13
78898;DHT22;68287;44.714;37.756;2023-05-23T01:31:23;25.14;51.18
78898;DHT22;68287;44.714;37.756;2023-05-23T01:32:26;25.16;51.13
78898;DHT22;68287;44.714;37.756;2023-05-23T01:33:31;25.14;51.13
78898;DHT22;68287;44.714;37.756;2023-05-23T01:34:34;25.14;51.15
78898;DHT22;68287;44.714;37.756;2023-05-23T01:35:35;25.16;51.16
78898;DHT22;68287;44.714;37.756;2023-05-23T01:36:42;25.15;51.19
78898;DHT22;68287;44.714;37.756;2023-05-23T01:37:43;25.14;51.17
78898;DHT22;68287;44.714;37.756;2023-05-23T01:38:44;25.16;51.19
78898;DHT22;68287;44.714;37.756;2023-05-23T01:39:46;25.16;51.13
78898;DHT22;68287;44.714;37.756;2023-05-23T01:40:49;25.15;51.17
78898;DHT22;68287;44.714;37.756;2023-05-23T01:41:51;25.15;51.21
78898;DHT22;68287;44.714;37.756;2023-05-23T01:42:54;25.16;51.13
78898;DHT22;68287;44.714;37.756;2023-05-23T01:43:57;25.14;51.16
78898;DHT22;68287;44.714;37.756;2023-05-23T01:45:00;25.15;51.17
78898;DHT22;68287;44.714;37.756;2023-05-23T01:46:03;25.16;51.15
78898;DHT22;68287;44.714;37.756;2023-05-23T01:47:08;25.16;51.13
78898;DHT22;68287;44.714;37.756;2023-05-23T01:48:12;25.18;51.15
78898;DHT22;68287;44.714;37.756;2023-05-23T01:49:14;25.18;51.16
78898;DHT22;68287;44.714;37.756;2023-05-23T01:50:17;25.15;51.19
78898;DHT22;68287;44.714;37.756;2023-05-23T01:51:19;25.16;51.18
78898;DHT22;68287;44.714;37.756;2023-05-23T01:52:22;25.16;51.13
78898;DHT22;68287;44.714;37.756;2023-05-23T01:53:24;25.15;51.17
78898;DHT22;68287;44.714;37.756;2023-05-23T01:54:27;25.14;51.20
78898;DHT22;68287;44.714;37.756;2023-05-23T01:55:29;25.15;51.21
78898;DHT22;68287;44.714;37.756;2023-05-23T01:56:31;25.16;51.17
78898;DHT22;68287;44.714;37.756;2023-05-23T01:57:34;25.15;51.16
78898;DHT22;68287;44.714;37.756;2023-05-23T01:58:35;25.16;51.16
78898;DHT22;68287;44.714;37.756;2023-05-23T01:59:37;25.18;51.14
78898;DHT22;68287;44.714;37.756;2023-05-23T02:00:39;25.16;51.15
78898;DHT22;68287;44.714;37.756;2023-05-23T02:01:41;25.19;51.11
78898;DHT22;68287;44.714;37.756;2023-05-23T02:02:43;25.16;51.10
78898;DHT22;68287;44.714;37.756;2023-05-23T02:03:44;25.21;51.10
78898;DHT22;68287;44.714;37.756;2023-05-23T02:04:48;25.19;51.09
78898;DHT22;68287;44.714;37.756;2023-05-23T02:05:49;25.19;51.09
78898;DHT22;68287;44.714;37.756;2023-05-23T02:06:50;25.18;51.14
78898;DHT22;68287;44.714;37.756;2023-05-23T02:07:52;25.19;51.10
78898;DHT22;68287;44.714;37.756;2023-05-23T02:08:53;25.21;51.17
78898;DHT22;68287;44.714;37.756;2023-05-23T02:09:54;25.19;51.13
78898;DHT22;68287;44.714;37.756;2023-05-23T02:10:56;25.19;51.16
78898;DHT22;68287;44.714;37.756;2023-05-23T02:11:57;25.19;51.11
78898;DHT22;68287;44.714;37.756;2023-05-23T02:13:00;25.18;51.14
78898;DHT22;68287;44.714;37.756;2023-05-23T02:14:02;25.18;51.08
78898;DHT22;68287;44.714;37.756;2023-05-23T02:15:04;25.22;51.07
78898;DHT22;68287;44.714;37.756;2023-05-23T02:16:06;25.19;51.09
78898;DHT22;68287;44.714;37.756;2023-05-23T02:17:08;25.21;51.11
78898;DHT22;68287;44.714;37.756;2023-05-23T02:18:15;25.21;51.08
78898;DHT22;68287;44.714;37.756;2023-05-23T02:19:17;25.21;51.09
78898;DHT22;68287;44.714;37.756;2023-05-23T02:20:20;25.19;51.08
78898;DHT22;68287;44.714;37.756;2023-05-23T02:21:23;25.19;51.13
78898;DHT22;68287;44.714;37.756;2023-05-23T02:22:24;25.19;51.04
78898;DHT22;68287;44.714;37.756;2023-05-23T02:23:25;25.19;51.03
78898;DHT22;68287;44.714;37.756;2023-05-23T02:24:27;25.21;51.09
78898;DHT22;68287;44.714;37.756;2023-05-23T02:25:28;25.21;51.09
78898;DHT22;68287;44.714;37.756;2023-05-23T02:26:29;25.22;51.08
78898;DHT22;68287;44.714;37.756;2023-05-23T02:27:30;25.24;51.07
78898;DHT22;68287;44.714;37.756;2023-05-23T02:28:32;25.22;51.05
78898;DHT22;68287;44.714;37.756;2023-05-23T02:29:33;25.21;51.07
78898;DHT22;68287;44.714;37.756;2023-05-23T02:30:34;25.24;51.07
78898;DHT22;68287;44.714;37.756;2023-05-23T02:31:36;25.22;51.11
78898;DHT22;68287;44.714;37.756;2023-05-23T02:32:37;25.22;51.12
78898;DHT22;68287;44.714;37.756;2023-05-23T02:33:38;25.21;51.09
78898;DHT22;68287;44.714;37.756;2023-05-23T02:34:39;25.21;51.15
78898;DHT22;68287;44.714;37.756;2023-05-23T02:35:41;25.19;51.13
78898;DHT22;68287;44.714;37.756;2023-05-23T02:36:44;25.22;51.09
78898;DHT22;68287;44.714;37.756;2023-05-23T02:37:46;25.21;51.08
78898;DHT22;68287;44.714;37.756;2023-05-23T02:38:47;25.22;51.10
78898;DHT22;68287;44.714;37.756;2023-05-23T02:39:48;25.19;51.05
78898;DHT22;68287;44.714;37.756;2023-05-23T02:40:50;25.22;51.07
78898;DHT22;68287;44.714;37.756;2023-05-23T02:41:53;25.21;51.07
78898;DHT22;68287;44.714;37.756;2023-05-23T02:42:54;25.21;51.03
78898;DHT22;68287;44.714;37.756;2023-05-23T02:43:58;25.19;51.08
78898;DHT22;68287;44.714;37.756;2023-05-23T02:44:59;25.24;51.07
78898;DHT22;68287;44.714;37.756;2023-05-23T02:46:01;25.19;51.09
78898;DHT22;68287;44.714;37.756;2023-05-23T02:47:02;25.21;51.09
78898;DHT22;68287;44.714;37.756;2023-05-23T02:48:04;25.21;51.12
78898;DHT22;68287;44.714;37.756;2023-05-23T02:49:05;25.22;51.11
78898;DHT22;68287;44.714;37.756;2023-05-23T02:50:07;25.21;51.17
78898;DHT22;68287;44.714;37.756;2023-05-23T02:51:08;25.18;51.11
78898;DHT22;68287;44.714;37.756;2023-05-23T02:52:09;25.21;51.12
78898;DHT22;68287;44.714;37.756;2023-05-23T02:53:11;25.19;51.09
78898;DHT22;68287;44.714;37.756;2023-05-23T02:54:12;25.19;51.09
78898;DHT22;68287;44.714;37.756;2023-05-23T02:55:14;25.22;51.10
78898;DHT22;68287;44.714;37.756;2023-05-23T02:56:19;25.19;51.12
78898;DHT22;68287;44.714;37.756;2023-05-23T02:57:22;25.21;51.13
78898;DHT22;68287;44.714;37.756;2023-05-23T02:58:23;25.18;51.08
78898;DHT22;68287;44.714;37.756;2023-05-23T02:59:25;25.21;51.13
78898;DHT22;68287;44.714;37.756;2023-05-23T03:00:26;25.19;51.13
78898;DHT22;68287;44.714;37.756;2023-05-23T03:01:30;25.19;51.16
78898;DHT22;68287;44.714;37.756;2023-05-23T03:02:31;25.21;51.13
78898;DHT22;68287;44.714;37.756;2023-05-23T03:03:33;25.19;51.17
78898;DHT22;68287;44.714;37.756;2023-05-23T03:04:34;25.18;51.11
78898;DHT22;68287;44.714;37.756;2023-05-23T03:05:37;25.19;51.14
78898;DHT22;68287;44.714;37.756;2023-05-23T03:06:39;25.21;51.14
78898;DHT22;68287;44.714;37.756;2023-05-23T03:07:42;25.18;51.20
78898;DHT22;68287;44.714;37.756;2023-05-23T03:08:43;25.18;51.23
78898;DHT22;68287;44.714;37.756;2023-05-23T03:09:45;25.16;51.31
78898;DHT22;68287;44.714;37.756;2023-05-23T03:10:46;25.18;51.25
78898;DHT22;68287;44.714;37.756;2023-05-23T03:11:47;25.18;51.24
78898;DHT22;68287;44.714;37.756;2023-05-23T03:12:49;25.18;51.28
78898;DHT22;68287;44.714;37.756;2023-05-23T03:13:51;25.15;51.33
78898;DHT22;68287;44.714;37.756;2023-05-23T03:14:52;25.18;51.48
78898;DHT22;68287;44.714;37.756;2023-05-23T03:15:53;25.21;51.36
78898;DHT22;68287;44.714;37.756;2023-05-23T03:16:55;25.22;51.50
78898;DHT22;68287;44.714;37.756;2023-05-23T03:17:56;25.22;51.47
78898;DHT22;68287;44.714;37.756;2023-05-23T03:18:57;25.21;51.52
78898;DHT22;68287;44.714;37.756;2023-05-23T03:19:59;25.22;51.51
78898;DHT22;68287;44.714;37.756;2023-05-23T03:21:00;25.22;51.51
78898;DHT22;68287;44.714;37.756;2023-05-23T03:22:02;25.22;51.56
78898;DHT22;68287;44.714;37.756;2023-05-23T03:23:03;25.19;51.56
78898;DHT22;68287;44.714;37.756;2023-05-23T03:24:04;25.19;51.56
78898;DHT22;68287;44.714;37.756;2023-05-23T03:25:06;25.22;51.59
78898;DHT22;68287;44.714;37.756;2023-05-23T03:26:07;25.19;51.65
78898;DHT22;68287;44.714;37.756;2023-05-23T03:27:09;25.21;51.54
78898;DHT22;68287;44.714;37.756;2023-05-23T03:28:10;25.24;51.76
78898;DHT22;68287;44.714;37.756;2023-05-23T03:29:15;25.18;51.95
78898;DHT22;68287;44.714;37.756;2023-05-23T03:30:17;25.14;52.17
78898;DHT22;68287;44.714;37.756;2023-05-23T03:31:19;25.14;52.16
78898;DHT22;68287;44.714;37.756;2023-05-23T03:32:20;25.12;52.08
78898;DHT22;68287;44.714;37.756;2023-05-23T03:33:22;25.15;52.19
78898;DHT22;68287;44.714;37.756;2023-05-23T03:34:23;25.15;52.19
78898;DHT22;68287;44.714;37.756;2023-05-23T03:35:26;25.14;52.26
78898;DHT22;68287;44.714;37.756;2023-05-23T03:36:27;25.15;52.22
78898;DHT22;68287;44.714;37.756;2023-05-23T03:37:29;25.15;52.27
78898;DHT22;68287;44.714;37.756;2023-05-23T03:38:30;25.15;52.32
78898;DHT22;68287;44.714;37.756;2023-05-23T03:39:31;25.14;52.33
78898;DHT22;68287;44.714;37.756;2023-05-23T03:40:32;25.15;52.26
78898;DHT22;68287;44.714;37.756;2023-05-23T03:41:34;25.16;52.27
78898;DHT22;68287;44.714;37.756;2023-05-23T03:42:37;25.15;52.44
78898;DHT22;68287;44.714;37.756;2023-05-23T03:43:38;25.16;52.54
78898;DHT22;68287;44.714;37.756;2023-05-23T03:44:40;25.14;52.70
78898;DHT22;68287;44.714;37.756;2023-05-23T03:45:41;25.11;52.62
78898;DHT22;68287;44.714;37.756;2023-05-23T03:46:47;25.12;52.56
78898;DHT22;68287;44.714;37.756;2023-05-23T03:47:49;25.18;52.50
78898;DHT22;68287;44.714;37.756;2023-05-23T03:48:51;25.16;52.43
78898;DHT22;68287;44.714;37.756;2023-05-23T03:49:52;25.21;52.53
78898;DHT22;68287;44.714;37.756;2023-05-23T03:50:53;25.16;52.64
78898;DHT22;68287;44.714;37.756;2023-05-23T03:51:55;25.16;52.72
78898;DHT22;68287;44.714;37.756;2023-05-23T03:52:56;25.15;52.67
78898;DHT22;68287;44.714;37.756;2023-05-23T03:53:58;25.18;52.59
78898;DHT22;68287;44.714;37.756;2023-05-23T03:55:00;25.16;52.61
78898;DHT22;68287;44.714;37.756;2023-05-23T03:56:02;25.18;52.86
78898;DHT22;68287;44.714;37.756;2023-05-23T03:57:04;25.12;52.91
78898;DHT22;68287;44.714;37.756;2023-05-23T03:58:05;25.15;52.88
78898;DHT22;68287;44.714;37.756;2023-05-23T03:59:07;25.15;52.92
78898;DHT22;68287;44.714;37.756;2023-05-23T04:00:08;25.12;52.89
78898;DHT22;68287;44.714;37.756;2023-05-23T04:01:17;25.15;52.88
78898;DHT22;68287;44.714;37.756;2023-05-23T04:02:20;25.16;52.97
78898;DHT22;68287;44.714;37.756;2023-05-23T04:03:22;25.16;52.89
78898;DHT22;68287;44.714;37.756;2023-05-23T04:04:25;25.19;52.82
78898;DHT22;68287;44.714;37.756;2023-05-23T04:05:26;25.18;52.86
78898;DHT22;68287;44.714;37.756;2023-05-23T04:06:28;25.19;52.80
78898;DHT22;68287;44.714;37.756;2023-05-23T04:07:32;25.18;52.77
78898;DHT22;68287;44.714;37.756;2023-05-23T04:08:37;25.19;52.88
78898;DHT22;68287;44.714;37.756;2023-05-23T04:09:42;25.19;52.88
78898;DHT22;68287;44.714;37.756;2023-05-23T04:10:47;25.18;52.79
78898;DHT22;68287;44.714;37.756;2023-05-23T04:11:50;25.19;52.79
78898;DHT22;68287;44.714;37.756;2023-05-23T04:12:52;25.18;52.87
78898;DHT22;68287;44.714;37.756;2023-05-23T04:13:54;25.18;52.87
78898;DHT22;68287;44.714;37.756;2023-05-23T04:14:55;25.15;52.93
78898;DHT22;68287;44.714;37.756;2023-05-23T04:15:59;25.16;53.02
78898;DHT22;68287;44.714;37.756;2023-05-23T04:17:02;25.16;52.95
78898;DHT22;68287;44.714;37.756;2023-05-23T04:18:03;25.18;52.98
78898;DHT22;68287;44.714;37.756;2023-05-23T04:19:07;25.16;53.07
78898;DHT22;68287;44.714;37.756;2023-05-23T04:20:10;25.16;53.09
78898;DHT22;68287;44.714;37.756;2023-05-23T04:21:12;25.14;53.08
78898;DHT22;68287;44.714;37.756;2023-05-23T04:22:22;25.18;53.08
78898;DHT22;68287;44.714;37.756;2023-05-23T04:23:23;25.19;53.08
78898;DHT22;68287;44.714;37.756;2023-05-23T04:24:27;25.15;53.02
78898;DHT22;68287;44.714;37.756;2023-05-23T04:25:30;25.18;52.94
78898;DHT22;68287;44.714;37.756;2023-05-23T04:26:39;25.19;52.87
78898;DHT22;68287;44.714;37.756;2023-05-23T04:27:41;25.19;52.74
78898;DHT22;68287;44.714;37.756;2023-05-23T04:28:43;25.21;52.81
78898;DHT22;68287;44.714;37.756;2023-05-23T04:29:46;25.21;52.73
78898;DHT22;68287;44.714;37.756;2023-05-23T04:30:48;25.22;52.71
78898;DHT22;68287;44.714;37.756;2023-05-23T04:31:52;25.22;52.65
78898;DHT22;68287;44.714;37.756;2023-05-23T04:32:55;25.21;52.66
78898;DHT22;68287;44.714;37.756;2023-05-23T04:33:58;25.22;52.70
78898;DHT22;68287;44.714;37.756;2023-05-23T04:34:59;25.19;52.75
78898;DHT22;68287;44.714;37.756;2023-05-23T04:36:03;25.19;52.71
78898;DHT22;68287;44.714;37.756;2023-05-23T04:37:05;25.21;52.69
78898;DHT22;68287;44.714;37.756;2023-05-23T04:38:07;25.21;52.61
78898;DHT22;68287;44.714;37.756;2023-05-23T04:39:08;25.21;52.65
78898;DHT22;68287;44.714;37.756;2023-05-23T04:40:15;25.21;52.68
78898;DHT22;68287;44.714;37.756;2023-05-23T04:41:52;25.19;52.68
78898;DHT22;68287;44.714;37.756;2023-05-23T04:43:20;25.22;52.71
78898;DHT22;68287;44.714;37.756;2023-05-23T04:44:28;25.21;52.62
78898;DHT22;68287;44.714;37.756;2023-05-23T04:45:49;25.21;52.61
78898;DHT22;68287;44.714;37.756;2023-05-23T04:47:01;25.21;52.62
78898;DHT22;68287;44.714;37.756;2023-05-23T04:48:21;25.21;52.56
78898;DHT22;68287;44.714;37.756;2023-05-23T04:49:23;25.22;52.53
78898;DHT22;68287;44.714;37.756;2023-05-23T04:50:26;25.22;52.47
78898;DHT22;68287;44.714;37.756;2023-05-23T04:51:31;25.24;52.49
78898;DHT22;68287;44.714;37.756;2023-05-23T04:52:43;25.25;52.50
78898;DHT22;68287;44.714;37.756;2023-05-23T04:53:45;25.24;52.45
78898;DHT22;68287;44.714;37.756;2023-05-23T04:54:46;25.25;52.46
78898;DHT22;68287;44.714;37.756;2023-05-23T04:55:48;25.25;52.43
78898;DHT22;68287;44.714;37.756;2023-05-23T04:56:52;25.25;52.45
78898;DHT22;68287;44.714;37.756;2023-05-23T04:57:54;25.25;52.40
78898;DHT22;68287;44.714;37.756;2023-05-23T04:58:56;25.25;52.44
78898;DHT22;68287;44.714;37.756;2023-05-23T04:59:59;25.21;52.47
78898;DHT22;68287;44.714;37.756;2023-05-23T05:01:02;25.19;52.45
78898;DHT22;68287;44.714;37.756;2023-05-23T05:02:05;25.22;52.41
78898;DHT22;68287;44.714;37.756;2023-05-23T05:03:07;25.21;52.40
78898;DHT22;68287;44.714;37.756;2023-05-23T05:04:13;25.21;52.54
78898;DHT22;68287;44.714;37.756;2023-05-23T05:05:14;25.21;52.50
78898;DHT22;68287;44.714;37.756;2023-05-23T05:06:15;25.19;52.49
78898;DHT22;68287;44.714;37.756;2023-05-23T05:07:17;25.21;52.42
78898;DHT22;68287;44.714;37.756;2023-05-23T05:08:18;25.19;52.47
78898;DHT22;68287;44.714;37.756;2023-05-23T05:09:20;25.21;52.44
78898;DHT22;68287;44.714;37.756;2023-05-23T05:10:23;25.21;52.49
78898;DHT22;68287;44.714;37.756;2023-05-23T05:11:25;25.22;52.45
78898;DHT22;68287;44.714;37.756;2023-05-23T05:12:28;25.22;52.41
78898;DHT22;68287;44.714;37.756;2023-05-23T05:13:29;25.22;52.48
78898;DHT22;68287;44.714;37.756;2023-05-23T05:14:32;25.22;52.46
78898;DHT22;68287;44.714;37.756;2023-05-23T05:15:34;25.24;52.40
78898;DHT22;68287;44.714;37.756;2023-05-23T05:16:36;25.25;52.37
78898;DHT22;68287;44.714;37.756;2023-05-23T05:17:38;25.24;52.28
78898;DHT22;68287;44.714;37.756;2023-05-23T05:18:43;25.22;52.36
78898;DHT22;68287;44.714;37.756;2023-05-23T05:19:44;25.22;52.36
78898;DHT22;68287;44.714;37.756;2023-05-23T05:20:46;25.22;52.34
78898;DHT22;68287;44.714;37.756;2023-05-23T05:21:49;25.24;52.37
78898;DHT22;68287;44.714;37.756;2023-05-23T05:22:57;25.22;52.33
78898;DHT22;68287;44.714;37.756;2023-05-23T05:23:58;25.24;52.32
78898;DHT22;68287;44.714;37.756;2023-05-23T05:25:01;25.21;52.33
78898;DHT22;68287;44.714;37.756;2023-05-23T05:26:03;25.22;52.37
78898;DHT22;68287;44.714;37.756;2023-05-23T05:27:05;25.22;52.33
78898;DHT22;68287;44.714;37.756;2023-05-23T05:28:07;25.19;52.30
78898;DHT22;68287;44.714;37.756;2023-05-23T05:29:15;25.21;52.27
78898;DHT22;68287;44.714;37.756;2023-05-23T05:30:17;25.22;52.31
78898;DHT22;68287;44.714;37.756;2023-05-23T05:31:28;25.22;52.34
78898;DHT22;68287;44.714;37.756;2023-05-23T05:32:30;25.21;52.29
78898;DHT22;68287;44.714;37.756;2023-05-23T05:33:35;25.24;52.29
78898;DHT22;68287;44.714;37.756;2023-05-23T05:34:46;25.28;52.19
78898;DHT22;68287;44.714;37.756;2023-05-23T05:46:44;25.19;52.19
78898;DHT22;68287;44.714;37.756;2023-05-23T05:47:46;25.21;52.14
78898;DHT22;68287;44.714;37.756;2023-05-23T05:48:48;25.24;52.12
78898;DHT22;68287;44.714;37.756;2023-05-23T05:49:51;25.24;52.15
78898;DHT22;68287;44.714;37.756;2023-05-23T05:50:54;25.24;52.18
78898;DHT22;68287;44.714;37.756;2023-05-23T05:51:56;25.22;52.15
78898;DHT22;68287;44.714;37.756;2023-05-23T05:52:57;25.25;52.27
78898;DHT22;68287;44.714;37.756;2023-05-23T05:53:59;25.22;52.15
78898;DHT22;68287;44.714;37.756;2023-05-23T05:55:00;25.22;52.25
78898;DHT22;68287;44.714;37.756;2023-05-23T05:56:02;25.22;52.22
78898;DHT22;68287;44.714;37.756;2023-05-23T05:57:05;25.18;52.23
78898;DHT22;68287;44.714;37.756;2023-05-23T05:58:07;25.19;52.22
78898;DHT22;68287;44.714;37.756;2023-05-23T05:59:22;25.19;52.25
78898;DHT22;68287;44.714;37.756;2023-05-23T06:00:24;25.19;52.25
78898;DHT22;68287;44.714;37.756;2023-05-23T06:01:29;25.19;52.21
78898;DHT22;68287;44.714;37.756;2023-05-23T06:02:31;25.21;52.15
78898;DHT22;68287;44.714;37.756;2023-05-23T06:03:32;25.21;52.20
78898;DHT22;68287;44.714;37.756;2023-05-23T06:04:34;25.21;52.22
78898;DHT22;68287;44.714;37.756;2023-05-23T06:05:36;25.22;52.15
78898;DHT22;68287;44.714;37.756;2023-05-23T06:06:37;25.21;52.11
78898;DHT22;68287;44.714;37.756;2023-05-23T06:07:39;25.25;52.11
78898;DHT22;68287;44.714;37.756;2023-05-23T06:08:41;25.25;52.14
78898;DHT22;68287;44.714;37.756;2023-05-23T06:09:46;25.26;52.05
78898;DHT22;68287;44.714;37.756;2023-05-23T06:10:48;25.22;52.11
78898;DHT22;68287;44.714;37.756;2023-05-23T06:11:50;25.24;52.07
78898;DHT22;68287;44.714;37.756;2023-05-23T06:12:51;25.25;52.06
78898;DHT22;68287;44.714;37.756;2023-05-23T06:13:53;25.26;52.04
78898;DHT22;68287;44.714;37.756;2023-05-23T06:14:54;25.25;52.10
78898;DHT22;68287;44.714;37.756;2023-05-23T06:15:56;25.28;52.01
78898;DHT22;68287;44.714;37.756;2023-05-23T06:16:58;25.28;52.01
78898;DHT22;68287;44.714;37.756;2023-05-23T06:18:00;25.25;52.09
78898;DHT22;68287;44.714;37.756;2023-05-23T06:19:02;25.28;52.08
78898;DHT22;68287;44.714;37.756;2023-05-23T06:20:06;25.29;52.05
78898;DHT22;68287;44.714;37.756;2023-05-23T06:21:10;25.26;52.06
78898;DHT22;68287;44.714;37.756;2023-05-23T06:22:11;25.29;52.13
78898;DHT22;68287;44.714;37.756;2023-05-23T06:23:13;25.28;52.10
78898;DHT22;68287;44.714;37.756;2023-05-23T06:24:14;25.26;52.09
78898;DHT22;68287;44.714;37.756;2023-05-23T06:25:16;25.26;52.14
78898;DHT22;68287;44.714;37.756;2023-05-23T06:26:21;25.28;52.11
78898;DHT22;68287;44.714;37.756;2023-05-23T06:27:22;25.28;52.19
78898;DHT22;68287;44.714;37.756;2023-05-23T06:28:24;25.29;52.16
78898;DHT22;68287;44.714;37.756;2023-05-23T06:29:26;25.28;52.22
78898;DHT22;68287;44.714;37.756;2023-05-23T06:30:29;25.26;52.14
78898;DHT22;68287;44.714;37.756;2023-05-23T06:31:31;25.28;52.24
78898;DHT22;68287;44.714;37.756;2023-05-23T06:32:32;25.28;52.25
78898;DHT22;68287;44.714;37.756;2023-05-23T06:33:34;25.28;52.35
78898;DHT22;68287;44.714;37.756;2023-05-23T06:34:35;25.28;52.32
78898;DHT22;68287;44.714;37.756;2023-05-23T06:35:37;25.26;52.32
78898;DHT22;68287;44.714;37.756;2023-05-23T06:36:38;25.25;52.39
78898;DHT22;68287;44.714;37.756;2023-05-23T06:37:40;25.28;52.38
78898;DHT22;68287;44.714;37.756;2023-05-23T06:38:46;25.26;52.46
78898;DHT22;68287;44.714;37.756;2023-05-23T06:39:47;25.26;52.41
78898;DHT22;68287;44.714;37.756;2023-05-23T06:40:49;25.26;52.36
78898;DHT22;68287;44.714;37.756;2023-05-23T06:41:53;25.28;52.47
78898;DHT22;68287;44.714;37.756;2023-05-23T06:42:54;25.26;52.46
78898;DHT22;68287;44.714;37.756;2023-05-23T06:44:08;25.28;52.50
78898;DHT22;68287;44.714;37.756;2023-05-23T06:45:14;25.28;52.47
78898;DHT22;68287;44.714;37.756;2023-05-23T06:46:16;25.29;52.52
78898;DHT22;68287;44.714;37.756;2023-05-23T06:47:18;25.26;52.59
78898;DHT22;68287;44.714;37.756;2023-05-23T06:48:20;25.26;52.57